Terminal Aerodrome Forecast
Issued by NWS

Home | Current Version | Previous Version | Text Only | Print | Product List | Glossary On
Versions: 1 2 3 4 5 6 7 8 9 10 11 12 13 14 15 16 17 18 19 20 21 22 23 24 25 26
000
FTUS41 KRLX 310500
TAFCKB
TAF
KCKB 310540Z 3106/0106 00000KT P6SM BKN040
      TEMPO 3108/3111 5SM BR
     FM311800 VRB03KT 6SM BR OVC050
     FM311900 VRB03KT 5SM BR OVC050
     FM312000 VRB03KT 5SM -SHRA BR OVC045
     FM010500 00000KT 4SM -RA BR BKN015 OVC025=

USA.gov is the U.S. government's official web portal to all federal, state and local government web resources and services.